createdAt,value
2018-10-12T00:00:23.429Z,90.66
2018-10-12T00:01:23.445Z,90.56
2018-10-12T00:02:23.473Z,91.23
2018-10-12T00:03:23.492Z,90.94
2018-10-12T00:04:23.515Z,91.33
2018-10-12T00:05:23.538Z,91.23
2018-10-12T00:06:23.563Z,91.61
2018-10-12T00:07:23.576Z,91.76
2018-10-12T00:08:23.594Z,91.86
2018-10-12T00:09:23.617Z,91.71
2018-10-12T00:10:23.650Z,91.86
2018-10-12T00:11:23.658Z,91.76
2018-10-12T00:12:23.688Z,91.66
2018-10-12T00:13:23.762Z,91.76
2018-10-12T00:14:23.735Z,91.96
2018-10-12T00:15:23.758Z,91.76
2018-10-12T00:16:23.772Z,91.76
2018-10-12T00:17:23.803Z,92.05
2018-10-12T00:18:23.814Z,91.76
2018-10-12T00:19:23.841Z,92.33
2018-10-12T00:20:23.861Z,91.76
2018-10-12T00:21:23.889Z,92.53
2018-10-12T00:22:23.915Z,92.24
2018-10-12T00:23:23.921Z,91.90
2018-10-12T00:24:24.005Z,91.61
2018-10-12T00:25:23.965Z,90.75
2018-10-12T00:26:23.983Z,91.33
2018-10-12T00:27:24.004Z,91.23
2018-10-12T00:28:24.026Z,90.46
2018-10-12T00:29:24.046Z,90.66
2018-10-12T00:30:24.073Z,90.37
2018-10-12T00:31:24.092Z,90.75
2018-10-12T00:32:24.117Z,91.19
2018-10-12T00:33:24.140Z,91.13
2018-10-12T00:34:24.148Z,90.46
2018-10-12T00:35:24.171Z,90.56
2018-10-12T00:36:24.205Z,90.70
2018-10-12T00:37:24.222Z,91.66
2018-10-12T00:38:24.241Z,91.47
2018-10-12T00:39:24.266Z,90.56
2018-10-12T00:40:24.291Z,90.56
2018-10-12T00:41:24.299Z,90.56
2018-10-12T00:42:24.325Z,89.98
2018-10-12T00:43:24.346Z,90.08
2018-10-12T00:44:24.369Z,90.75
2018-10-12T00:45:24.385Z,92.05
2018-10-12T00:46:24.408Z,91.66
2018-10-12T00:47:24.431Z,91.86
2018-10-12T00:48:24.553Z,91.19
2018-10-12T00:49:24.474Z,91.47
2018-10-12T00:50:24.494Z,91.38
2018-10-12T00:51:24.514Z,91.57
2018-10-12T00:52:24.544Z,91.19
2018-10-12T00:53:24.558Z,91.86
2018-10-12T00:54:24.586Z,91.86
2018-10-12T00:55:24.596Z,92.05
2018-10-12T00:56:24.623Z,91.66
2018-10-12T00:57:24.639Z,91.57
2018-10-12T00:58:24.665Z,90.99
2018-10-12T00:59:24.680Z,91.38
2018-10-12T01:00:24.725Z,91.57
2018-10-12T01:01:24.741Z,92.58
2018-10-12T01:02:24.744Z,92.29
2018-10-12T01:03:24.766Z,92.24
2018-10-12T01:04:24.854Z,92.39
2018-10-12T01:05:24.806Z,92.53
2018-10-12T01:06:24.846Z,92.00
2018-10-12T01:07:24.851Z,92.29
2018-10-12T01:08:24.875Z,92.10
2018-10-12T01:09:24.895Z,92.58
2018-10-12T01:10:24.924Z,92.48
2018-10-12T01:11:24.937Z,92.68
2018-10-12T01:12:25.082Z,92.39
2018-10-12T01:14:25.009Z,92.39
2018-10-12T01:15:25.025Z,92.29
2018-10-12T01:16:25.044Z,92.14
2018-10-12T01:17:25.070Z,91.72
2018-10-12T01:18:25.087Z,91.86
2018-10-12T01:19:25.117Z,91.62
2018-10-12T01:20:25.121Z,92.05
2018-10-12T01:21:25.162Z,91.38
2018-10-12T01:22:25.179Z,90.70
2018-10-12T01:23:25.191Z,90.70
2018-10-12T01:24:25.217Z,90.52
2018-10-12T01:25:25.271Z,90.99
2018-10-12T01:26:25.254Z,90.99
2018-10-12T01:27:25.283Z,90.80
2018-10-12T01:28:25.304Z,91.19
2018-10-12T01:29:25.353Z,91.33
2018-10-12T01:30:25.343Z,91.24
2018-10-12T01:31:25.363Z,92.19
2018-10-12T01:32:25.380Z,92.00
2018-10-12T01:33:25.403Z,92.00
2018-10-12T01:34:25.443Z,91.91
2018-10-12T01:35:25.444Z,91.09
2018-10-12T01:36:25.467Z,91.24
2018-10-12T01:37:25.512Z,91.52
2018-10-12T01:38:25.523Z,91.42
2018-10-12T01:39:25.534Z,91.24
2018-10-12T01:40:25.569Z,91.14
2018-10-12T01:41:25.573Z,90.75
2018-10-12T01:42:25.597Z,91.52
2018-10-12T01:43:25.617Z,90.66
2018-10-12T01:44:25.637Z,90.70
2018-10-12T01:45:25.659Z,90.99
2018-10-12T01:46:25.680Z,89.79
2018-10-12T01:47:25.696Z,89.94
2018-10-12T01:48:25.719Z,89.65
2018-10-12T01:49:25.766Z,89.94
2018-10-12T01:50:25.764Z,89.99
2018-10-12T01:51:25.788Z,90.08
2018-10-12T01:52:25.809Z,89.65
2018-10-12T01:53:25.827Z,89.46
2018-10-12T01:54:25.847Z,88.79
2018-10-12T01:55:25.876Z,88.98
2018-10-12T01:56:25.891Z,88.21
2018-10-12T01:57:25.913Z,88.21
2018-10-12T01:58:25.931Z,88.93
2018-10-12T01:59:25.960Z,89.12
2018-10-12T02:00:25.978Z,89.51
2018-10-12T02:01:25.989Z,88.88
2018-10-12T02:02:26.045Z,88.35
2018-10-12T02:03:26.024Z,88.98
2018-10-12T02:04:26.122Z,88.74
2018-10-12T02:05:26.077Z,89.03
2018-10-12T02:06:26.096Z,89.79
2018-10-12T02:07:26.111Z,90.08
2018-10-12T02:08:26.154Z,90.95
2018-10-12T02:09:26.164Z,90.47
2018-10-12T02:10:26.182Z,90.18
2018-10-12T02:11:26.200Z,89.79
2018-10-12T02:12:26.227Z,89.32
2018-10-12T02:13:26.242Z,88.74
2018-10-12T02:14:26.263Z,88.35
2018-10-12T02:15:26.289Z,88.55
2018-10-12T02:16:26.305Z,88.17
2018-10-12T02:17:26.320Z,87.78
2018-10-12T02:18:26.347Z,88.55
2018-10-12T02:19:26.375Z,89.12
2018-10-12T02:20:26.397Z,89.03
2018-10-12T02:21:26.406Z,89.51
2018-10-12T02:22:26.438Z,89.03
2018-10-12T02:23:26.448Z,88.45
2018-10-12T02:24:26.465Z,88.17
2018-10-12T02:25:26.488Z,88.26
2018-10-12T02:26:26.512Z,88.93
2018-10-12T02:27:26.536Z,89.61
2018-10-12T02:28:26.561Z,88.55
2018-10-12T02:29:26.580Z,88.55
2018-10-12T02:30:26.596Z,88.74
2018-10-12T02:31:26.617Z,88.74
2018-10-12T02:32:26.633Z,89.51
2018-10-12T02:33:26.661Z,89.12
2018-10-12T02:34:26.677Z,88.84
2018-10-12T02:35:26.701Z,88.65
2018-10-12T02:36:26.722Z,88.17
2018-10-12T02:37:26.746Z,89.22
2018-10-12T02:38:26.759Z,89.22
2018-10-12T02:39:26.774Z,89.65
2018-10-12T02:40:26.812Z,90.52
2018-10-12T02:41:26.827Z,90.42
2018-10-12T02:42:26.846Z,90.08
2018-10-12T02:43:26.907Z,89.99
2018-10-12T02:44:26.887Z,89.51
2018-10-12T02:45:26.907Z,90.04
2018-10-12T02:46:26.930Z,90.04
2018-10-12T02:47:26.949Z,90.42
2018-10-12T02:48:26.976Z,90.14
2018-10-12T02:49:26.992Z,90.71
2018-10-12T02:50:27.015Z,90.71
2018-10-12T02:51:27.033Z,90.61
2018-10-12T02:52:27.058Z,91.57
2018-10-12T02:53:27.074Z,90.18
2018-10-12T02:54:27.105Z,90.04
2018-10-12T02:55:27.127Z,90.71
2018-10-12T02:56:27.157Z,91.19
2018-10-12T02:57:27.163Z,91.09
2018-10-12T02:58:27.186Z,90.47
2018-10-12T02:59:27.199Z,90.66
2018-10-12T03:00:27.222Z,90.28
2018-10-12T03:01:27.239Z,89.89
2018-10-12T03:02:27.266Z,88.93
2018-10-12T03:03:27.272Z,89.32
2018-10-12T03:04:27.324Z,88.55
2018-10-12T03:05:27.326Z,89.41
2018-10-12T03:06:27.349Z,89.12
2018-10-12T03:07:27.407Z,88.84
2018-10-12T03:08:27.383Z,89.22
2018-10-12T03:09:27.409Z,89.61
2018-10-12T03:10:27.438Z,89.51
2018-10-12T03:11:27.453Z,89.41
2018-10-12T03:12:27.473Z,89.03
2018-10-12T03:13:27.494Z,89.03
2018-10-12T03:14:27.511Z,90.08
2018-10-12T03:15:27.532Z,89.99
2018-10-12T03:16:27.551Z,90.61
2018-10-12T03:17:27.578Z,90.14
2018-10-12T03:18:27.604Z,89.94
2018-10-12T03:19:27.621Z,90.04
2018-10-12T03:20:27.643Z,89.79
2018-10-12T03:21:27.657Z,89.75
2018-10-12T03:22:27.677Z,90.04
2018-10-12T03:23:27.696Z,90.71
2018-10-12T03:24:27.724Z,90.90
2018-10-12T03:25:27.740Z,90.61
2018-10-12T03:26:27.766Z,90.04
2018-10-12T03:27:27.778Z,89.12
2018-10-12T03:28:27.804Z,88.65
2018-10-12T03:29:27.815Z,88.65
2018-10-12T03:30:27.847Z,88.26
2018-10-12T03:31:27.908Z,88.65
2018-10-12T03:32:27.891Z,89.08
2018-10-12T03:33:27.912Z,89.47
2018-10-12T03:34:27.925Z,89.37
2018-10-12T03:35:27.947Z,88.98
2018-10-12T03:36:27.969Z,89.85
2018-10-12T03:37:27.985Z,88.74
2018-10-12T03:38:28.013Z,88.26
2018-10-12T03:39:28.042Z,88.07
2018-10-12T03:40:28.050Z,87.78
2018-10-12T03:41:28.069Z,87.59
2018-10-12T03:42:28.124Z,87.84
2018-10-12T03:43:28.111Z,88.41
2018-10-12T03:44:28.133Z,88.79
2018-10-12T03:45:28.158Z,89.65
2018-10-12T03:46:28.186Z,89.75
2018-10-12T03:47:28.198Z,88.89
2018-10-12T03:48:28.223Z,89.08
2018-10-12T03:49:28.242Z,89.08
2018-10-12T03:50:28.263Z,89.27
2018-10-12T03:51:28.276Z,89.08
2018-10-12T03:52:28.306Z,89.42
2018-10-12T03:53:28.323Z,90.04
2018-10-12T03:54:28.340Z,90.67
2018-10-12T03:55:28.396Z,90.47
2018-10-12T03:56:28.388Z,90.67
2018-10-12T03:57:28.404Z,89.51
2018-10-12T03:58:28.420Z,90.04
2018-10-12T03:59:28.452Z,88.98
2018-10-12T04:00:28.461Z,89.65
2018-10-12T04:01:28.487Z,89.18
2018-10-12T04:02:28.507Z,88.70
2018-10-12T04:03:28.534Z,89.04
2018-10-12T04:04:28.563Z,89.85
2018-10-12T04:05:28.572Z,89.80
2018-10-12T04:06:28.593Z,89.47
2018-10-12T04:07:28.610Z,89.56
2018-10-12T04:08:28.632Z,88.70
2018-10-12T04:09:28.654Z,88.02
2018-10-12T04:10:28.674Z,89.18
2018-10-12T04:11:28.694Z,89.56
2018-10-12T04:12:28.787Z,89.23
2018-10-12T04:13:28.741Z,88.98
2018-10-12T04:14:28.766Z,88.70
2018-10-12T04:15:28.780Z,88.12
2018-10-12T04:16:28.797Z,89.23
2018-10-12T04:17:28.811Z,90.47
2018-10-12T04:18:28.841Z,90.76
2018-10-12T04:19:28.859Z,89.90
2018-10-12T04:20:28.886Z,89.42
2018-10-12T04:21:28.899Z,89.51
2018-10-12T04:22:28.922Z,90.00
2018-10-12T04:23:28.944Z,89.90
2018-10-12T04:24:28.966Z,89.42
2018-10-12T04:26:29.007Z,90.57
2018-10-12T04:27:29.030Z,90.00
2018-10-12T04:28:29.050Z,90.19
2018-10-12T04:29:29.065Z,90.09
2018-10-12T04:30:29.087Z,89.32
2018-10-12T04:31:29.111Z,89.61
2018-10-12T04:32:29.121Z,90.00
2018-10-12T04:33:29.151Z,90.38
2018-10-12T04:34:29.177Z,90.28
2018-10-12T04:35:29.183Z,89.90
2018-10-12T04:36:29.206Z,88.79
2018-10-12T04:37:29.235Z,88.12
2018-10-12T04:38:29.275Z,88.12
2018-10-12T04:39:29.274Z,87.74
2018-10-12T04:40:29.295Z,87.84
2018-10-12T04:41:29.318Z,87.93
2018-10-12T04:42:29.335Z,87.64
2018-10-12T04:43:29.353Z,88.46
2018-10-12T04:44:29.375Z,89.90
2018-10-12T04:45:29.397Z,89.04
2018-10-12T04:46:29.420Z,88.65
2018-10-12T04:47:29.431Z,88.02
2018-10-12T04:48:29.460Z,88.08
2018-10-12T04:49:29.540Z,87.93
2018-10-12T04:50:29.504Z,87.64
2018-10-12T04:51:29.518Z,87.98
2018-10-12T04:52:29.553Z,89.23
2018-10-12T04:53:29.562Z,89.13
2018-10-12T04:54:29.585Z,88.56
2018-10-12T04:55:29.604Z,88.27
2018-10-12T04:56:29.623Z,88.75
2018-10-12T04:57:29.638Z,89.51
2018-10-12T04:58:29.690Z,89.23
2018-10-12T04:59:29.689Z,89.47
2018-10-12T05:00:29.718Z,89.76
2018-10-12T05:01:29.738Z,89.61
2018-10-12T05:02:29.750Z,88.56
2018-10-12T05:03:29.770Z,88.84
2018-10-12T05:04:29.791Z,88.17
2018-10-12T05:05:29.806Z,87.35
2018-10-12T05:06:29.835Z,87.07
2018-10-12T05:07:29.867Z,87.07
2018-10-12T05:08:29.874Z,87.41
2018-10-12T05:09:29.888Z,87.88
2018-10-12T05:10:29.912Z,88.37
2018-10-12T05:11:29.943Z,88.17
2018-10-12T05:12:29.954Z,89.28
2018-10-12T05:13:30.040Z,89.76
2018-10-12T05:14:30.001Z,90.62
2018-10-12T05:15:30.017Z,90.14
2018-10-12T05:16:30.039Z,89.90
2018-10-12T05:17:30.058Z,89.13
2018-10-12T05:18:30.078Z,89.13
2018-10-12T05:19:30.102Z,88.75
2018-10-12T05:20:30.120Z,88.17
2018-10-12T05:21:30.133Z,88.17
2018-10-12T05:22:30.173Z,88.46
2018-10-12T05:23:30.179Z,87.79
2018-10-12T05:24:30.236Z,87.98
2018-10-12T05:25:30.227Z,87.88
2018-10-12T05:26:30.292Z,88.51
2018-10-12T05:27:30.259Z,89.51
2018-10-12T05:28:30.287Z,88.17
2018-10-12T05:29:30.310Z,86.93
2018-10-12T05:30:30.342Z,87.02
2018-10-12T05:31:30.334Z,86.97
2018-10-12T05:32:30.362Z,86.74
2018-10-12T05:33:30.385Z,86.74
2018-10-12T05:34:30.406Z,86.78
2018-10-12T05:35:30.422Z,86.21
2018-10-12T05:36:30.446Z,85.92
2018-10-12T05:37:30.546Z,86.68
2018-10-12T05:38:30.489Z,86.54
2018-10-12T05:39:30.507Z,87.21
2018-10-12T05:40:30.526Z,87.12
2018-10-12T05:41:30.549Z,87.21
2018-10-12T05:42:30.575Z,87.02
2018-10-12T05:43:30.733Z,86.74
2018-10-12T05:44:30.617Z,87.31
2018-10-12T05:45:30.637Z,87.98
2018-10-12T05:46:30.650Z,88.08
2018-10-12T05:47:30.666Z,87.02
2018-10-12T05:48:30.790Z,86.78
2018-10-12T05:49:30.711Z,86.16
2018-10-12T05:50:30.732Z,86.83
2018-10-12T05:51:30.746Z,86.93
2018-10-12T05:52:30.781Z,87.21
2018-10-12T05:53:30.797Z,87.41
2018-10-12T05:54:30.807Z,86.78
2018-10-12T05:55:30.829Z,87.07
2018-10-12T05:56:30.847Z,86.21
2018-10-12T05:57:30.875Z,86.11
2018-10-12T05:58:30.895Z,87.02
2018-10-12T05:59:30.922Z,88.70
2018-10-12T06:00:30.937Z,89.09
2018-10-12T06:01:30.953Z,88.75
2018-10-12T06:02:30.975Z,87.79
2018-10-12T06:03:30.994Z,87.12
2018-10-12T06:04:31.015Z,86.83
2018-10-12T06:05:31.041Z,87.21
2018-10-12T06:06:31.058Z,87.98
2018-10-12T06:07:31.076Z,87.70
2018-10-12T06:08:31.100Z,87.88
2018-10-12T06:09:31.143Z,88.42
2018-10-12T06:10:31.136Z,88.65
2018-10-12T06:11:31.226Z,88.75
2018-10-12T06:12:31.175Z,87.70
2018-10-12T06:13:31.196Z,87.31
2018-10-12T06:14:31.224Z,87.21
2018-10-12T06:15:31.287Z,86.64
2018-10-12T06:16:31.266Z,86.35
2018-10-12T06:17:31.277Z,87.21
2018-10-12T06:18:31.305Z,87.79
2018-10-12T06:19:31.328Z,88.08
2018-10-12T06:20:31.336Z,87.31
2018-10-12T06:21:31.396Z,87.31
2018-10-12T06:22:31.396Z,86.83
2018-10-12T06:23:31.419Z,86.25
2018-10-12T06:24:31.425Z,86.01
2018-10-12T06:25:31.446Z,86.21
2018-10-12T06:26:31.459Z,86.64
2018-10-12T06:27:31.495Z,86.64
2018-10-12T06:28:31.502Z,86.25
2018-10-12T06:29:31.528Z,85.92
2018-10-12T06:30:31.552Z,86.01
2018-10-12T06:31:31.564Z,86.01
2018-10-12T06:32:31.587Z,86.83
2018-10-12T06:33:31.608Z,88.03
2018-10-12T06:34:31.632Z,88.84
2018-10-12T06:35:31.649Z,88.17
2018-10-12T06:36:31.681Z,87.60
2018-10-12T06:37:31.695Z,86.74
2018-10-12T06:38:31.716Z,87.21
2018-10-12T06:39:31.732Z,87.02
2018-10-12T06:40:31.750Z,86.88
2018-10-12T06:41:32.036Z,87.41
2018-10-12T06:42:31.787Z,87.31
2018-10-12T06:43:31.808Z,87.31
2018-10-12T06:44:31.841Z,87.98
2018-10-12T06:45:31.903Z,87.70
2018-10-12T06:46:31.898Z,87.60
2018-10-12T06:47:31.888Z,87.98
2018-10-12T06:48:31.915Z,88.08
2018-10-12T06:49:31.934Z,87.88
2018-10-12T06:50:31.978Z,87.88
2018-10-12T06:51:31.975Z,87.07
2018-10-12T06:52:31.999Z,87.02
2018-10-12T06:53:32.022Z,86.40
2018-10-12T06:54:32.037Z,86.78
2018-10-12T06:55:32.050Z,86.49
2018-10-12T06:56:32.083Z,86.40
2018-10-12T06:57:32.105Z,86.11
2018-10-12T06:58:32.122Z,86.49
2018-10-12T06:59:32.147Z,86.74
2018-10-12T07:00:32.158Z,87.31
2018-10-12T07:01:32.180Z,86.83
2018-10-12T07:02:32.210Z,87.31
2018-10-12T07:03:32.214Z,87.41
2018-10-12T07:04:32.412Z,87.45
2018-10-12T07:05:32.278Z,86.93
2018-10-12T07:06:32.284Z,87.02
2018-10-12T07:07:32.303Z,87.70
2018-10-12T07:08:32.383Z,87.41
2018-10-12T07:09:32.353Z,87.41
2018-10-12T07:10:32.364Z,87.26
2018-10-12T07:11:32.390Z,87.50
2018-10-12T07:12:32.413Z,87.70
2018-10-12T07:13:32.430Z,88.27
2018-10-12T07:14:32.455Z,88.02
2018-10-12T07:15:32.466Z,87.26
2018-10-12T07:16:32.491Z,87.55
2018-10-12T07:17:32.507Z,87.16
2018-10-12T07:18:32.546Z,87.55
2018-10-12T07:19:32.615Z,87.35
2018-10-12T07:20:32.571Z,87.93
2018-10-12T07:21:32.603Z,87.35
2018-10-12T07:22:32.614Z,86.78
2018-10-12T07:23:32.638Z,86.68
2018-10-12T07:24:32.652Z,86.78
2018-10-12T07:25:32.667Z,86.88
2018-10-12T07:26:32.697Z,87.26
2018-10-12T07:28:32.731Z,87.55
2018-10-12T07:29:32.764Z,87.84
2018-10-12T07:30:32.787Z,87.74
2018-10-12T07:31:32.860Z,87.93
2018-10-12T07:32:32.813Z,87.45
2018-10-12T07:33:32.842Z,86.78
2018-10-12T07:34:32.863Z,86.88
2018-10-12T07:35:32.886Z,86.54
2018-10-12T07:36:32.897Z,86.82
2018-10-12T07:37:32.927Z,86.72
2018-10-12T07:38:32.955Z,85.96
2018-10-12T07:39:32.967Z,86.25
2018-10-12T07:40:32.987Z,86.30
2018-10-12T07:41:33.001Z,86.58
2018-10-12T07:42:33.139Z,86.88
2018-10-12T07:43:33.046Z,87.35
2018-10-12T07:44:33.061Z,87.45
2018-10-12T07:45:33.089Z,87.35
2018-10-12T07:46:33.130Z,87.45
2018-10-12T07:47:33.195Z,87.35
2018-10-12T07:48:33.146Z,87.35
2018-10-12T07:49:33.172Z,87.93
2018-10-12T07:50:33.193Z,87.84
2018-10-12T07:51:33.203Z,87.84
2018-10-12T07:52:33.238Z,87.84
2018-10-12T07:53:33.255Z,88.17
2018-10-12T07:54:33.271Z,88.12
2018-10-12T07:55:33.298Z,88.41
2018-10-12T07:56:33.427Z,88.31
2018-10-12T07:57:33.352Z,88.41
2018-10-12T07:58:33.359Z,87.93
2018-10-12T07:59:33.377Z,88.07
2018-10-12T08:00:33.434Z,88.31
2018-10-12T08:01:33.428Z,87.93
2018-10-12T08:02:33.445Z,87.40
2018-10-12T08:03:33.463Z,87.49
2018-10-12T08:04:33.481Z,87.40
2018-10-12T08:05:33.506Z,87.49
2018-10-12T08:06:33.576Z,87.11
2018-10-12T08:07:33.658Z,86.63
2018-10-12T08:08:33.560Z,86.34
2018-10-12T08:09:33.628Z,86.34
2018-10-12T08:10:33.614Z,85.77
2018-10-12T08:11:33.627Z,86.44
2018-10-12T08:12:33.648Z,85.77
2018-10-12T08:13:33.707Z,85.77
2018-10-12T08:14:33.697Z,85.86
2018-10-12T08:15:33.728Z,85.86
2018-10-12T08:16:33.732Z,85.71
2018-10-12T08:17:33.759Z,85.81
2018-10-12T08:18:33.773Z,85.62
2018-10-12T08:19:33.791Z,85.81
2018-10-12T08:20:34.001Z,85.04
2018-10-12T08:21:33.833Z,84.75
2018-10-12T08:22:33.857Z,84.18
2018-10-12T08:23:33.871Z,83.89
2018-10-12T08:24:33.925Z,83.51
2018-10-12T08:25:34.080Z,83.41
2018-10-12T08:26:33.938Z,83.03
2018-10-12T08:27:33.958Z,82.49
2018-10-12T08:28:33.978Z,82.40
2018-10-12T08:29:34.008Z,82.93
2018-10-12T08:30:34.028Z,82.59
2018-10-12T08:31:34.081Z,82.49
2018-10-12T08:32:34.064Z,82.30
2018-10-12T08:33:34.113Z,82.49
2018-10-12T08:34:34.103Z,82.10
2018-10-12T08:35:34.220Z,81.63
2018-10-12T08:36:34.221Z,81.82
2018-10-12T08:37:34.170Z,81.82
2018-10-12T08:38:34.186Z,81.34
2018-10-12T08:39:34.217Z,81.05
2018-10-12T08:40:34.249Z,81.24
2018-10-12T08:41:34.268Z,80.86
2018-10-12T08:42:34.284Z,81.05
2018-10-12T08:43:34.297Z,81.34
2018-10-12T08:44:34.317Z,81.34
2018-10-12T08:45:34.339Z,81.86
2018-10-12T08:46:34.385Z,81.86
2018-10-12T08:47:34.385Z,81.19
2018-10-12T08:48:34.403Z,80.80
2018-10-12T08:49:34.434Z,79.94
2018-10-12T08:50:34.461Z,80.04
2018-10-12T08:51:34.467Z,79.94
2018-10-12T08:52:34.502Z,80.04
2018-10-12T08:53:34.516Z,80.61
2018-10-12T08:54:34.532Z,80.51
2018-10-12T08:55:34.599Z,79.94
2018-10-12T08:56:34.588Z,78.88
2018-10-12T08:57:34.597Z,79.55
2018-10-12T08:58:34.624Z,79.84
2018-10-12T08:59:34.646Z,79.40
2018-10-12T09:00:34.676Z,79.02
2018-10-12T09:01:34.688Z,79.50
2018-10-12T09:02:34.701Z,79.02
2018-10-12T09:03:34.722Z,79.69
2018-10-12T09:04:34.748Z,79.69
2018-10-12T09:05:34.776Z,80.07
2018-10-12T09:06:34.785Z,79.98
2018-10-12T09:07:34.809Z,79.98
2018-10-12T09:08:34.850Z,79.69
2018-10-12T09:09:34.864Z,78.96
2018-10-12T09:10:34.964Z,77.81
2018-10-12T09:11:34.925Z,77.33
2018-10-12T09:12:34.921Z,76.98
2018-10-12T09:13:34.949Z,76.31
2018-10-12T09:14:34.966Z,76.88
2018-10-12T09:15:34.986Z,76.75
2018-10-12T09:16:35.002Z,76.94
2018-10-12T09:17:35.036Z,77.71
2018-10-12T09:18:35.061Z,78.19
2018-10-12T09:19:35.069Z,78.19
2018-10-12T09:20:35.203Z,78.34
2018-10-12T09:21:35.131Z,78.83
2018-10-12T09:22:35.139Z,79.11
2018-10-12T09:23:35.169Z,79.30
2018-10-12T09:24:35.183Z,79.02
2018-10-12T09:25:35.204Z,78.83
2018-10-12T09:26:35.232Z,79.21
2018-10-12T09:27:35.267Z,79.30
2018-10-12T09:28:35.274Z,79.02
2018-10-12T09:29:35.298Z,79.30
2018-10-12T09:30:35.317Z,79.40
2018-10-12T09:31:35.346Z,79.40
2018-10-12T09:32:35.358Z,79.11
2018-10-12T09:33:35.380Z,79.02
2018-10-12T09:34:35.412Z,79.40
2018-10-12T09:35:35.432Z,79.40
2018-10-12T09:36:35.545Z,79.05
2018-10-12T09:37:35.474Z,77.75
2018-10-12T09:38:35.499Z,76.06
2018-10-12T09:39:35.513Z,73.53
2018-10-12T09:40:35.537Z,70.38
2018-10-12T09:41:35.574Z,70.19
2018-10-12T09:42:35.585Z,70.92
2018-10-12T09:43:35.601Z,73.39
2018-10-12T09:44:35.633Z,74.80
2018-10-12T09:45:35.650Z,75.28
2018-10-12T09:46:35.673Z,75.03
2018-10-12T09:47:35.698Z,74.03
2018-10-12T09:48:35.724Z,74.51
2018-10-12T09:49:35.737Z,75.38
2018-10-12T09:50:35.762Z,75.63
2018-10-12T09:51:35.789Z,75.54
2018-10-12T09:52:35.809Z,75.86
2018-10-12T09:53:35.838Z,75.86
2018-10-12T09:54:35.855Z,74.99
2018-10-12T09:55:35.877Z,74.41
2018-10-12T09:56:35.898Z,74.41
2018-10-12T09:57:35.914Z,75.28
2018-10-12T09:58:35.953Z,75.82
2018-10-12T09:59:35.964Z,76.21
2018-10-12T10:00:35.989Z,76.40
2018-10-12T10:01:36.056Z,76.50
2018-10-12T10:02:36.039Z,77.36
2018-10-12T10:03:36.057Z,77.75
2018-10-12T10:04:36.080Z,77.75
2018-10-12T10:05:36.105Z,77.94
2018-10-12T10:06:36.121Z,78.03
2018-10-12T10:07:36.223Z,78.13
2018-10-12T10:08:36.344Z,77.26
2018-10-12T10:09:36.194Z,76.88
2018-10-12T10:10:36.205Z,76.40
2018-10-12T10:11:36.246Z,76.88
2018-10-12T10:12:36.261Z,77.17
2018-10-12T10:13:36.326Z,76.78
2018-10-12T10:14:36.307Z,76.40
2018-10-12T10:15:36.396Z,76.21
2018-10-12T10:16:36.342Z,76.21
2018-10-12T10:17:36.368Z,76.25
2018-10-12T10:18:36.386Z,76.88
2018-10-12T10:19:36.410Z,77.65
2018-10-12T10:20:36.437Z,77.75
2018-10-12T10:21:36.452Z,78.23
2018-10-12T10:22:36.560Z,77.75
2018-10-12T10:23:36.502Z,77.65
2018-10-12T10:24:36.561Z,77.26
2018-10-12T10:25:36.613Z,77.08
2018-10-12T10:26:36.594Z,76.88
2018-10-12T10:27:36.648Z,77.17
2018-10-12T10:28:36.643Z,77.36
2018-10-12T10:29:36.657Z,77.46
2018-10-12T10:30:36.683Z,77.46
2018-10-12T10:31:36.710Z,77.21
2018-10-12T10:32:36.773Z,76.82
2018-10-12T10:33:36.786Z,77.08
2018-10-12T10:34:36.805Z,76.88
2018-10-12T10:35:36.972Z,77.01
2018-10-12T10:36:36.798Z,76.25
2018-10-12T10:37:36.829Z,76.25
2018-10-12T10:38:36.854Z,75.38
2018-10-12T10:39:36.864Z,75.57
2018-10-12T10:40:36.886Z,75.38
2018-10-12T10:41:36.908Z,75.19
2018-10-12T10:42:36.942Z,75.19
2018-10-12T10:43:36.952Z,74.55
2018-10-12T10:44:36.978Z,74.36
2018-10-12T10:45:37.011Z,74.74
2018-10-12T10:46:37.025Z,73.91
2018-10-12T10:47:37.060Z,73.05
2018-10-12T10:48:37.128Z,73.43
2018-10-12T10:49:37.128Z,73.24
2018-10-12T10:50:37.117Z,73.05
2018-10-12T10:51:37.138Z,73.91
2018-10-12T10:52:37.169Z,74.30
2018-10-12T10:53:37.209Z,74.20
2018-10-12T10:54:37.235Z,74.49
2018-10-12T10:55:37.237Z,74.49
2018-10-12T10:56:37.264Z,74.20
2018-10-12T10:57:37.314Z,73.62
2018-10-12T10:58:37.318Z,72.95
2018-10-12T10:59:37.335Z,73.72
2018-10-12T11:00:37.370Z,72.66
2018-10-12T11:01:37.401Z,73.08
2018-10-12T11:02:37.412Z,72.31
2018-10-12T11:03:37.437Z,72.31
2018-10-12T11:04:37.464Z,71.92
2018-10-12T11:05:37.490Z,71.25
2018-10-12T11:06:37.526Z,71.54
2018-10-12T11:07:37.545Z,71.73
2018-10-12T11:08:37.574Z,71.86
2018-10-12T11:09:37.604Z,71.09
2018-10-12T11:10:37.620Z,70.61
2018-10-12T11:11:37.657Z,69.35
2018-10-12T11:12:37.734Z,67.07
2018-10-12T11:13:37.705Z,67.65
2018-10-12T11:14:37.729Z,67.20
2018-10-12T11:15:37.760Z,67.20
2018-10-12T11:16:37.787Z,67.11
2018-10-12T11:17:37.819Z,67.20
2018-10-12T11:18:37.859Z,66.72
2018-10-12T11:19:38.090Z,66.08
2018-10-12T11:20:37.907Z,64.31
2018-10-12T11:21:37.946Z,60.82
2018-10-12T11:22:37.964Z,56.30
2018-10-12T11:23:39.005Z,52.23
2018-10-12T11:24:38.132Z,48.61
2018-10-12T11:25:38.052Z,46.69
2018-10-12T11:26:38.098Z,46.02
2018-10-12T11:27:38.107Z,46.86
2018-10-12T11:28:38.139Z,50.41
2018-10-12T11:29:38.171Z,54.38
2018-10-12T11:30:38.203Z,56.65
2018-10-12T11:31:38.233Z,56.23
2018-10-12T11:32:38.313Z,54.63
2018-10-12T11:33:38.286Z,53.49
2018-10-12T11:34:38.331Z,53.85
2018-10-12T11:35:38.342Z,52.28
2018-10-12T11:36:38.373Z,50.46
2018-10-12T11:37:38.419Z,51.55
2018-10-12T11:38:38.430Z,54.67
2018-10-12T11:39:38.459Z,56.75
2018-10-12T11:40:38.496Z,57.69
2018-10-12T11:41:38.517Z,58.92
2018-10-12T11:42:38.542Z,59.21
2018-10-12T11:43:38.576Z,59.66
2018-10-12T11:44:38.606Z,59.11
2018-10-12T11:45:38.626Z,59.56
2018-10-12T11:46:38.656Z,60.34
2018-10-12T11:47:38.682Z,59.86
2018-10-12T11:48:38.729Z,60.14
2018-10-12T11:49:38.748Z,61.18
2018-10-12T11:50:38.790Z,61.47
2018-10-12T11:51:38.802Z,62.63
2018-10-12T11:52:38.835Z,59.95
2018-10-12T11:53:38.859Z,59.08
2018-10-12T11:54:38.903Z,58.80
2018-10-12T11:55:38.901Z,58.70
2018-10-12T11:56:38.941Z,58.89
2018-10-12T11:57:38.967Z,59.44
2018-10-12T11:58:38.997Z,59.34
2018-10-12T11:59:39.011Z,59.53
2018-10-12T12:00:39.033Z,59.73
2018-10-12T12:01:39.099Z,60.31
2018-10-12T12:02:39.098Z,60.21
2018-10-12T12:03:39.115Z,59.83
2018-10-12T12:04:39.161Z,60.60
2018-10-12T12:05:39.176Z,60.69
2018-10-12T12:06:39.199Z,60.11
2018-10-12T12:07:39.225Z,60.11
2018-10-12T12:08:39.242Z,59.53
2018-10-12T12:09:39.275Z,59.25
2018-10-12T12:10:39.331Z,58.86
2018-10-12T12:11:39.334Z,59.92
2018-10-12T12:12:39.417Z,60.89
2018-10-12T12:13:39.480Z,61.08
2018-10-12T12:14:39.404Z,60.89
2018-10-12T12:15:39.432Z,60.38
2018-10-12T12:16:39.491Z,60.21
2018-10-12T12:17:39.487Z,59.83
2018-10-12T12:18:39.513Z,59.73
2018-10-12T12:19:39.544Z,58.86
2018-10-12T12:20:39.560Z,59.25
2018-10-12T12:21:39.606Z,60.11
2018-10-12T12:22:39.619Z,60.79
2018-10-12T12:23:39.748Z,60.31
2018-10-12T12:24:39.679Z,59.15
2018-10-12T12:25:39.700Z,59.56
2018-10-12T12:26:39.726Z,59.73
2018-10-12T12:27:39.749Z,60.50
2018-10-12T12:28:39.776Z,60.34
2018-10-12T12:29:39.813Z,58.89
2018-10-12T12:30:39.820Z,57.63
2018-10-12T12:31:39.862Z,57.66
2018-10-12T12:32:39.882Z,58.02
2018-10-12T12:33:39.903Z,58.89
2018-10-12T12:34:40.106Z,57.86
2018-10-12T12:35:40.344Z,58.21
2018-10-12T12:36:39.990Z,58.40
2018-10-12T12:37:40.015Z,57.08
2018-10-12T12:38:40.051Z,56.30
2018-10-12T12:39:40.071Z,57.37
2018-10-12T12:40:40.101Z,56.60
2018-10-12T12:41:40.153Z,57.63
2018-10-12T12:42:40.154Z,57.73
2018-10-12T12:43:40.190Z,57.73
2018-10-12T12:44:40.198Z,58.60
2018-10-12T12:45:40.286Z,57.82
2018-10-12T12:46:40.265Z,58.60
2018-10-12T12:47:40.393Z,58.12
2018-10-12T12:48:40.639Z,57.63
2018-10-12T12:49:40.333Z,57.63
2018-10-12T12:50:40.364Z,57.73
2018-10-12T12:51:40.381Z,57.92
2018-10-12T12:52:40.407Z,57.08
2018-10-12T12:53:40.508Z,57.66
2018-10-12T12:54:40.498Z,57.73
2018-10-12T12:55:40.489Z,58.40